Time;durP1;ratioP1;P1;durP2;ratioP2;P2;SDS_P1;SDS_P2;PMS_P1;PMS_P2;Temp;Humidity;BMP_temperature;BMP_pressure;BME280_temperature;BME280_humidity;BME280_pressure;Samples;Min_cycle;Max_cycle;Signal;HPM_P1;HPM_P2
2022/11/30 00:00:08;;;;;;;29.87;16.30;;;6.50;99.90;;;;;;4989846;28;20231;-67
2022/11/30 00:02:36;;;;;;;33.87;17.03;;;6.40;99.90;;;;;;4979029;28;20219;-67
2022/11/30 00:05:04;;;;;;;28.07;16.70;;;6.40;99.90;;;;;;4990728;28;20288;-67
2022/11/30 00:07:31;;;;;;;32.73;16.23;;;6.50;99.90;;;;;;4970817;28;20231;-67
2022/11/30 00:09:58;;;;;;;39.70;18.10;;;6.50;99.90;;;;;;4972259;28;20720;-67
2022/11/30 00:12:24;;;;;;;36.43;17.23;;;6.40;99.90;;;;;;4962318;28;20211;-67
2022/11/30 00:14:51;;;;;;;37.07;17.07;;;6.40;99.90;;;;;;4974507;28;20213;-67
2022/11/30 00:17:18;;;;;;;35.43;17.07;;;6.40;99.90;;;;;;4975285;28;20230;-67
2022/11/30 00:19:46;;;;;;;36.80;17.67;;;6.50;99.90;;;;;;4983427;28;20691;-68
2022/11/30 00:22:13;;;;;;;37.67;19.23;;;6.50;99.90;;;;;;4972669;28;20214;-68
2022/11/30 00:24:40;;;;;;;37.77;17.43;;;6.50;99.90;;;;;;4984980;28;20226;-68
2022/11/30 00:27:07;;;;;;;37.73;18.87;;;6.50;99.90;;;;;;4950561;28;20226;-68
2022/11/30 00:29:34;;;;;;;35.60;17.50;;;6.50;99.90;;;;;;4972883;28;20226;-68
2022/11/30 00:32:00;;;;;;;35.93;18.00;;;6.50;99.90;;;;;;4973784;28;20287;-68
2022/11/30 00:34:27;;;;;;;33.93;17.90;;;6.40;99.90;;;;;;4978515;28;20288;-67
2022/11/30 00:36:55;;;;;;;41.10;18.50;;;6.40;99.90;;;;;;4983112;28;20203;-67
2022/11/30 00:39:22;;;;;;;38.97;18.47;;;6.40;99.90;;;;;;4981624;28;20821;-68
2022/11/30 00:41:49;;;;;;;40.53;18.13;;;6.40;99.90;;;;;;4975958;28;20223;-67
2022/11/30 00:44:16;;;;;;;38.50;18.27;;;6.40;99.90;;;;;;4942870;28;20298;-67
2022/11/30 00:46:42;;;;;;;37.27;18.83;;;6.40;99.90;;;;;;4980558;28;20883;-68
2022/11/30 00:49:09;;;;;;;39.10;17.73;;;6.40;99.90;;;;;;4971116;28;20233;-67
2022/11/30 00:51:37;;;;;;;42.13;19.13;;;6.40;99.90;;;;;;4980327;28;20223;-68
2022/11/30 00:54:06;;;;;;;38.67;18.83;;;6.40;99.90;;;;;;4972774;28;20242;-67
2022/11/30 00:56:32;;;;;;;41.13;19.53;;;6.40;99.90;;;;;;4973234;28;20223;-67
2022/11/30 00:58:59;;;;;;;45.97;20.03;;;6.40;99.90;;;;;;4955624;28;20212;-68
2022/11/30 01:01:26;;;;;;;42.07;19.30;;;6.40;99.90;;;;;;4982612;28;20225;-67
2022/11/30 01:03:53;;;;;;;35.37;18.17;;;6.40;99.90;;;;;;4970530;28;20810;-67
2022/11/30 01:06:19;;;;;;;46.50;17.97;;;6.40;99.90;;;;;;4975661;28;20830;-68
2022/11/30 01:08:47;;;;;;;38.27;19.27;;;6.30;99.90;;;;;;4976478;28;20230;-68
2022/11/30 01:11:21;;;;;;;38.83;19.03;;;6.40;99.90;;;;;;4963222;28;20698;-68
2022/11/30 01:13:47;;;;;;;36.43;17.70;;;6.40;99.90;;;;;;4944103;28;20989;-68
2022/11/30 01:16:17;;;;;;;41.20;19.17;;;6.40;99.90;;;;;;4983884;28;20222;-67
2022/11/30 01:18:44;;;;;;;34.97;18.63;;;6.40;99.90;;;;;;4970915;28;20294;-68
2022/11/30 01:21:16;;;;;;;39.20;18.33;;;6.30;99.90;;;;;;4981899;28;20238;-67
2022/11/30 01:23:44;;;;;;;35.87;17.93;;;6.40;99.90;;;;;;4976699;28;20208;-67
2022/11/30 01:26:11;;;;;;;39.17;17.57;;;6.30;99.90;;;;;;4970826;28;20203;-67
2022/11/30 01:28:40;;;;;;;33.93;17.37;;;6.40;99.90;;;;;;4964967;28;20239;-68
2022/11/30 01:31:09;;;;;;;37.67;17.60;;;6.30;99.90;;;;;;4970702;28;20210;-67
2022/11/30 01:33:36;;;;;;;37.43;16.77;;;6.30;99.90;;;;;;4980447;28;20573;-68
2022/11/30 01:36:05;;;;;;;34.30;16.67;;;6.30;99.90;;;;;;4972524;28;20349;-67
2022/11/30 01:38:33;;;;;;;35.80;17.30;;;6.30;99.90;;;;;;4982302;28;20226;-67
2022/11/30 01:41:00;;;;;;;33.43;15.53;;;6.30;99.90;;;;;;4972423;28;20742;-68
2022/11/30 01:43:40;;;;;;;34.23;16.93;;;6.30;99.90;;;;;;4975337;28;21777;-67
2022/11/30 01:46:27;;;;;;;33.63;16.70;;;6.40;99.90;;;;;;4974174;28;20207;-67
2022/11/30 01:48:59;;;;;;;33.67;16.37;;;6.40;99.90;;;;;;4973188;28;20242;-67
2022/11/30 01:51:29;;;;;;;33.03;16.50;;;6.30;99.90;;;;;;4983179;28;20214;-67
2022/11/30 01:53:56;;;;;;;28.33;15.63;;;6.40;99.90;;;;;;4987356;28;20191;-67
2022/11/30 01:56:23;;;;;;;31.93;17.23;;;6.50;99.90;;;;;;4976608;28;20217;-67
2022/11/30 01:58:52;;;;;;;33.27;16.30;;;6.40;99.90;;;;;;4947177;28;20206;-68
2022/11/30 02:01:18;;;;;;;29.37;15.63;;;6.40;99.90;;;;;;4985130;28;20207;-67
2022/11/30 02:03:52;;;;;;;34.20;16.63;;;6.30;99.90;;;;;;4987552;28;20941;-67
2022/11/30 02:06:19;;;;;;;38.10;16.63;;;6.30;99.90;;;;;;4979538;28;20203;-67
2022/11/30 02:08:46;;;;;;;36.13;16.37;;;6.40;99.90;;;;;;4980433;28;20233;-67
2022/11/30 02:11:15;;;;;;;37.83;16.80;;;6.30;99.90;;;;;;4989102;28;20206;-67
2022/11/30 02:13:55;;;;;;;34.27;15.50;;;6.30;99.90;;;;;;4947705;28;20928;-68
2022/11/30 02:16:29;;;;;;;36.40;16.93;;;6.30;99.90;;;;;;4987097;28;20195;-67
2022/11/30 02:19:09;;;;;;;35.50;16.13;;;6.30;99.90;;;;;;4981069;28;20541;-67
2022/11/30 02:21:41;;;;;;;38.87;17.57;;;6.30;99.90;;;;;;4972325;28;20215;-67
2022/11/30 02:24:47;;;;;;;31.23;16.07;;;6.20;99.90;;;;;;4985626;28;20209;-67
2022/11/30 02:27:28;;;;;;;36.73;15.50;;;6.30;99.90;;;;;;4980257;28;20276;-67
2022/11/30 02:30:05;;;;;;;34.03;16.57;;;6.30;99.90;;;;;;4946812;28;20963;-68
2022/11/30 02:32:36;;;;;;;36.80;16.53;;;6.20;99.90;;;;;;4990676;28;20225;-67
2022/11/30 02:35:06;;;;;;;37.07;17.27;;;6.30;99.90;;;;;;4989743;28;20616;-67
2022/11/30 02:37:35;;;;;;;33.33;17.20;;;6.30;99.90;;;;;;4975823;28;20211;-67
2022/11/30 02:40:06;;;;;;;37.77;16.67;;;6.30;99.90;;;;;;4982112;28;20240;-67
2022/11/30 02:42:33;;;;;;;46.33;19.00;;;6.20;99.90;;;;;;4987033;28;20203;-67
2022/11/30 02:45:02;;;;;;;39.00;17.27;;;6.20;99.90;;;;;;4966906;28;20238;-67
2022/11/30 02:47:36;;;;;;;42.10;17.10;;;6.20;99.90;;;;;;4960701;28;20228;-67
2022/11/30 02:50:09;;;;;;;35.23;17.13;;;6.30;99.90;;;;;;4983145;28;20249;-67
2022/11/30 02:52:36;;;;;;;35.93;16.37;;;6.30;99.90;;;;;;4975775;28;20230;-67
2022/11/30 02:55:05;;;;;;;39.43;18.10;;;6.30;99.90;;;;;;4980393;28;20233;-67
2022/11/30 02:57:33;;;;;;;37.17;17.90;;;6.20;99.90;;;;;;4987901;28;20249;-67
2022/11/30 03:00:03;;;;;;;43.93;16.80;;;6.20;99.90;;;;;;4971253;28;20237;-67
2022/11/30 03:02:30;;;;;;;41.47;17.77;;;6.40;99.90;;;;;;4955370;28;20271;-68
2022/11/30 03:04:57;;;;;;;40.23;17.30;;;6.30;99.90;;;;;;4990762;28;20221;-67
2022/11/30 03:07:24;;;;;;;50.17;19.37;;;6.30;99.90;;;;;;4967809;28;20226;-68
2022/11/30 03:09:50;;;;;;;47.90;19.20;;;6.30;99.90;;;;;;4985957;28;20240;-67
2022/11/30 03:12:17;;;;;;;40.07;18.13;;;6.20;99.90;;;;;;4987399;28;20238;-67
2022/11/30 03:14:44;;;;;;;44.33;19.50;;;6.30;99.90;;;;;;4981444;28;20223;-67
2022/11/30 03:17:12;;;;;;;41.50;18.47;;;6.30;99.90;;;;;;4950082;28;20203;-68
2022/11/30 03:19:39;;;;;;;43.63;19.43;;;6.20;99.90;;;;;;4990675;28;21171;-67
2022/11/30 03:22:06;;;;;;;43.70;18.83;;;6.20;99.90;;;;;;4969963;28;20588;-67
2022/11/30 03:24:33;;;;;;;46.13;19.23;;;6.20;99.90;;;;;;4975655;28;20223;-68
2022/11/30 03:26:59;;;;;;;54.53;20.93;;;6.20;99.90;;;;;;4987622;28;20222;-68
2022/11/30 03:29:26;;;;;;;51.87;20.60;;;6.20;99.90;;;;;;4976330;28;20230;-67
2022/11/30 03:31:53;;;;;;;45.27;19.53;;;6.20;99.90;;;;;;4975509;28;21029;-67
2022/11/30 03:34:25;;;;;;;65.43;21.40;;;6.20;99.90;;;;;;4955215;28;20771;-67
2022/11/30 03:36:52;;;;;;;51.63;20.83;;;6.20;99.90;;;;;;4971737;28;20209;-67
2022/11/30 03:39:19;;;;;;;53.47;20.70;;;6.20;99.90;;;;;;4978291;28;20232;-67
2022/11/30 03:41:45;;;;;;;62.63;20.57;;;6.20;99.90;;;;;;4990521;28;20222;-67
2022/11/30 03:44:12;;;;;;;49.57;19.87;;;6.20;99.90;;;;;;4989579;28;20207;-68
2022/11/30 03:46:39;;;;;;;52.90;21.60;;;6.20;99.90;;;;;;4960213;28;20453;-67
2022/11/30 03:49:06;;;;;;;53.60;21.83;;;6.20;99.90;;;;;;4963095;28;20227;-67
2022/11/30 03:51:34;;;;;;;56.43;21.40;;;6.20;99.90;;;;;;4992402;28;20713;-67
2022/11/30 03:54:01;;;;;;;55.07;21.73;;;6.20;99.90;;;;;;4979042;28;20213;-67
2022/11/30 03:56:27;;;;;;;55.77;21.20;;;6.20;99.90;;;;;;4988917;28;20214;-67
2022/11/30 03:58:54;;;;;;;59.37;21.80;;;6.20;99.90;;;;;;4996154;28;20218;-68
2022/11/30 04:01:22;;;;;;;60.83;22.13;;;6.20;99.90;;;;;;4980716;28;20242;-67
2022/11/30 04:03:49;;;;;;;55.47;22.13;;;6.30;99.90;;;;;;4947836;28;20862;-68
2022/11/30 04:06:17;;;;;;;52.30;20.50;;;6.20;99.90;;;;;;4988929;28;20703;-67
2022/11/30 04:08:46;;;;;;;65.07;21.37;;;6.20;99.90;;;;;;4975537;28;20243;-68
2022/11/30 04:11:13;;;;;;;59.60;21.63;;;6.20;99.90;;;;;;4989594;28;20218;-67
2022/11/30 04:13:41;;;;;;;49.83;21.93;;;6.20;99.90;;;;;;4991473;28;20219;-67
2022/11/30 04:16:08;;;;;;;54.10;21.87;;;6.20;99.90;;;;;;4974648;28;20227;-68
2022/11/30 04:18:37;;;;;;;56.27;22.27;;;6.20;99.90;;;;;;4963073;28;20207;-68
2022/11/30 04:21:06;;;;;;;68.17;23.93;;;6.20;99.90;;;;;;4959095;28;20213;-67
2022/11/30 04:23:35;;;;;;;55.27;21.50;;;6.20;99.90;;;;;;4973515;28;20765;-68
2022/11/30 04:26:04;;;;;;;61.53;23.00;;;6.10;99.90;;;;;;4979663;28;20230;-67
2022/11/30 04:28:31;;;;;;;67.63;23.63;;;6.10;99.90;;;;;;4983169;28;20235;-67
2022/11/30 04:30:59;;;;;;;63.37;22.73;;;6.20;99.90;;;;;;4977806;28;20222;-67
2022/11/30 04:33:26;;;;;;;64.97;23.40;;;6.20;99.90;;;;;;4968370;28;20226;-67
2022/11/30 04:35:56;;;;;;;66.47;24.73;;;6.20;99.90;;;;;;4953029;28;20222;-67
2022/11/30 04:38:24;;;;;;;67.77;23.87;;;6.20;99.90;;;;;;4979102;28;20199;-67
2022/11/30 04:40:50;;;;;;;64.30;24.70;;;6.20;99.90;;;;;;4975175;28;20230;-68
2022/11/30 04:43:19;;;;;;;65.90;25.63;;;6.10;99.90;;;;;;4983367;28;20206;-67
2022/11/30 04:45:46;;;;;;;66.43;23.57;;;6.10;99.90;;;;;;4983489;28;20206;-67
2022/11/30 04:48:13;;;;;;;65.07;23.47;;;6.10;99.90;;;;;;4957414;28;20666;-69
2022/11/30 04:50:40;;;;;;;75.17;24.37;;;6.20;99.90;;;;;;4934915;28;20219;-67
2022/11/30 04:53:08;;;;;;;60.10;22.33;;;6.10;99.90;;;;;;4954801;28;20241;-67
2022/11/30 04:55:36;;;;;;;69.90;25.00;;;6.10;99.90;;;;;;4943675;28;20374;-68
2022/11/30 04:58:03;;;;;;;61.33;22.77;;;6.10;99.90;;;;;;4981905;28;20219;-67
2022/11/30 05:00:32;;;;;;;64.13;23.77;;;6.10;99.90;;;;;;4977387;28;20233;-67
2022/11/30 05:02:58;;;;;;;53.60;21.77;;;6.10;99.90;;;;;;4976614;28;20230;-67
2022/11/30 05:05:25;;;;;;;69.17;23.80;;;6.20;99.90;;;;;;4955111;28;20235;-68
2022/11/30 05:07:56;;;;;;;62.77;22.23;;;6.10;99.90;;;;;;4968501;28;20223;-68
2022/11/30 05:10:24;;;;;;;63.87;22.50;;;6.10;99.90;;;;;;4977883;28;20231;-67
2022/11/30 05:12:51;;;;;;;60.83;23.97;;;6.10;99.90;;;;;;4963837;28;20245;-67
2022/11/30 05:15:18;;;;;;;67.60;24.67;;;6.10;99.90;;;;;;4954434;28;20714;-67
2022/11/30 05:17:46;;;;;;;68.23;23.20;;;6.10;99.90;;;;;;4966988;28;20237;-67
2022/11/30 05:20:13;;;;;;;66.23;24.93;;;6.10;99.90;;;;;;4970203;28;20215;-67
2022/11/30 05:22:40;;;;;;;65.53;26.10;;;6.10;99.90;;;;;;4929170;28;20229;-67
2022/11/30 05:25:08;;;;;;;59.60;23.40;;;6.10;99.90;;;;;;4971856;28;20222;-68
2022/11/30 05:27:35;;;;;;;63.70;22.03;;;6.20;99.90;;;;;;4957370;28;20245;-67
2022/11/30 05:30:02;;;;;;;70.53;24.30;;;6.10;99.90;;;;;;4965491;28;20238;-67
2022/11/30 05:32:29;;;;;;;63.57;23.10;;;6.10;99.90;;;;;;4973417;28;20215;-67
2022/11/30 05:34:57;;;;;;;76.50;25.43;;;6.10;99.90;;;;;;4954390;28;20288;-67
2022/11/30 05:37:24;;;;;;;69.27;23.80;;;6.10;99.90;;;;;;4932122;28;20206;-67
2022/11/30 05:39:50;;;;;;;60.47;23.30;;;6.10;99.90;;;;;;4970304;28;20244;-67
2022/11/30 05:42:17;;;;;;;68.30;23.83;;;6.10;99.90;;;;;;4954361;28;20231;-67
2022/11/30 05:44:44;;;;;;;56.07;22.10;;;6.10;99.90;;;;;;4963070;28;23742;-67
2022/11/30 05:47:11;;;;;;;55.30;21.17;;;6.10;99.90;;;;;;4957382;28;20229;-68
2022/11/30 05:49:38;;;;;;;58.97;21.10;;;6.10;99.90;;;;;;4950790;28;20241;-67
2022/11/30 05:52:06;;;;;;;58.40;21.83;;;6.10;99.90;;;;;;4948087;28;20716;-66
2022/11/30 05:54:34;;;;;;;59.17;21.77;;;6.10;99.90;;;;;;4944720;28;20222;-67
2022/11/30 05:57:01;;;;;;;54.70;22.77;;;6.10;99.90;;;;;;4964238;28;20229;-66
2022/11/30 05:59:28;;;;;;;54.77;21.60;;;6.10;99.90;;;;;;4958917;28;20233;-67
2022/11/30 06:01:55;;;;;;;57.00;21.20;;;6.10;99.90;;;;;;4976178;28;20314;-67
2022/11/30 06:04:22;;;;;;;51.50;20.67;;;6.10;99.90;;;;;;4957762;28;20632;-67
2022/11/30 06:06:51;;;;;;;53.20;20.80;;;6.00;99.90;;;;;;4951255;28;20246;-67
2022/11/30 06:09:19;;;;;;;57.30;22.10;;;6.00;99.90;;;;;;4938891;28;20262;-67
2022/11/30 06:11:45;;;;;;;51.77;19.43;;;6.00;99.90;;;;;;4970112;28;20227;-67
2022/11/30 06:14:12;;;;;;;64.23;21.47;;;6.00;99.90;;;;;;4968434;28;20230;-67
2022/11/30 06:16:39;;;;;;;54.33;22.63;;;5.90;99.90;;;;;;4978137;28;20591;-66
2022/11/30 06:19:06;;;;;;;55.70;20.63;;;5.90;99.90;;;;;;4965546;28;20231;-67
2022/11/30 06:21:33;;;;;;;52.73;20.70;;;5.90;99.90;;;;;;4971309;28;20219;-67
2022/11/30 06:24:00;;;;;;;55.07;21.00;;;6.00;99.90;;;;;;4961671;28;20238;-67
2022/11/30 06:26:28;;;;;;;59.03;22.43;;;5.90;99.90;;;;;;4989151;28;20199;-67
2022/11/30 06:28:54;;;;;;;54.03;20.60;;;5.90;99.90;;;;;;4974598;28;20853;-67
2022/11/30 06:31:21;;;;;;;52.43;20.60;;;5.90;99.90;;;;;;4983024;28;20202;-67
2022/11/30 06:33:48;;;;;;;58.97;21.37;;;5.90;99.90;;;;;;4986009;28;20205;-67
2022/11/30 06:36:21;;;;;;;49.57;20.33;;;5.90;99.90;;;;;;4979326;28;20214;-67
2022/11/30 06:38:48;;;;;;;65.77;22.13;;;6.00;99.90;;;;;;4983430;28;20934;-67
2022/11/30 06:41:15;;;;;;;46.60;20.67;;;5.90;99.90;;;;;;4962644;28;20231;-67
2022/11/30 06:43:43;;;;;;;52.13;20.30;;;5.90;99.90;;;;;;4977725;28;20219;-67
2022/11/30 06:46:10;;;;;;;52.77;19.97;;;5.90;99.90;;;;;;4983618;28;20203;-67
2022/11/30 06:48:36;;;;;;;52.93;20.83;;;5.90;99.90;;;;;;4991729;28;20209;-67
2022/11/30 06:51:06;;;;;;;48.37;20.87;;;5.80;99.90;;;;;;4976250;28;20704;-67
2022/11/30 06:53:32;;;;;;;46.13;20.20;;;5.90;99.90;;;;;;4989800;28;20202;-67
2022/11/30 06:56:03;;;;;;;46.33;18.33;;;5.90;99.90;;;;;;4962644;28;20798;-67
2022/11/30 06:58:29;;;;;;;49.77;21.33;;;5.90;99.90;;;;;;4977695;28;20261;-67
2022/11/30 07:00:58;;;;;;;48.00;19.90;;;5.90;99.90;;;;;;4980779;28;21628;-67
2022/11/30 07:03:24;;;;;;;51.47;20.90;;;5.90;99.90;;;;;;4993251;28;20208;-67
2022/11/30 07:05:53;;;;;;;43.53;19.00;;;5.80;99.90;;;;;;4978767;28;20611;-67
2022/11/30 07:08:19;;;;;;;47.80;18.33;;;5.90;99.90;;;;;;4960731;28;20776;-67
2022/11/30 07:10:47;;;;;;;53.57;20.30;;;5.90;99.90;;;;;;4994404;28;20337;-67
2022/11/30 07:13:16;;;;;;;49.43;21.37;;;5.90;99.90;;;;;;4968660;28;20755;-67
2022/11/30 07:15:43;;;;;;;39.97;19.10;;;5.80;99.90;;;;;;4979053;28;20203;-67
2022/11/30 07:18:12;;;;;;;40.63;18.97;;;5.80;99.90;;;;;;4987539;28;20219;-67
2022/11/30 07:20:39;;;;;;;44.97;20.13;;;5.80;99.90;;;;;;4992860;28;20726;-67
2022/11/30 07:28:28;;;;;;;46.13;20.30;;;5.80;99.90;;;;;;4962456;28;20763;-67
2022/11/30 07:30:54;;;;;;;46.60;19.17;;;5.80;99.90;;;;;;4982597;28;20796;-67
2022/11/30 07:33:22;;;;;;;51.97;21.40;;;5.80;99.90;;;;;;4983655;28;20306;-67
2022/11/30 07:35:49;;;;;;;50.73;20.47;;;5.80;99.90;;;;;;4990887;28;20195;-67
2022/11/30 07:38:16;;;;;;;43.17;19.47;;;5.80;99.90;;;;;;4985781;28;20707;-67
2022/11/30 07:40:43;;;;;;;46.43;21.37;;;5.90;99.90;;;;;;4985870;28;20654;-67
2022/11/30 07:43:09;;;;;;;50.63;21.33;;;5.80;99.90;;;;;;4965563;28;20268;-67
2022/11/30 07:45:36;;;;;;;47.47;20.03;;;5.80;99.90;;;;;;4975361;28;20206;-67
2022/11/30 07:48:03;;;;;;;44.90;19.73;;;5.80;99.90;;;;;;4981922;28;20216;-71
2022/11/30 07:50:31;;;;;;;43.87;20.47;;;5.80;99.90;;;;;;4990117;28;20231;-67
2022/11/30 07:52:58;;;;;;;51.70;20.40;;;5.90;99.90;;;;;;4993393;28;20207;-67
2022/11/30 07:55:25;;;;;;;49.53;21.20;;;5.80;99.90;;;;;;4981008;28;20574;-67
2022/11/30 07:57:53;;;;;;;56.67;22.20;;;5.80;99.90;;;;;;4966862;28;21013;-67
2022/11/30 08:00:20;;;;;;;46.93;20.83;;;5.80;99.90;;;;;;4992544;28;20216;-67
2022/11/30 08:02:50;;;;;;;51.43;21.20;;;5.80;99.90;;;;;;4972516;28;20799;-67
2022/11/30 08:05:17;;;;;;;43.60;20.63;;;5.80;99.90;;;;;;4993168;28;21458;-67
2022/11/30 08:07:45;;;;;;;58.50;22.03;;;5.90;99.90;;;;;;4989886;28;20211;-67
2022/11/30 08:10:12;;;;;;;53.00;22.97;;;5.90;99.90;;;;;;4978093;28;20236;-67
2022/11/30 08:12:38;;;;;;;52.23;22.00;;;5.90;99.90;;;;;;4991978;28;20222;-67
2022/11/30 08:15:07;;;;;;;49.83;21.57;;;5.90;99.90;;;;;;4966877;28;20205;-67
2022/11/30 08:17:34;;;;;;;53.53;21.87;;;6.00;99.90;;;;;;4966739;28;20260;-67
2022/11/30 08:20:01;;;;;;;51.37;22.50;;;5.90;99.90;;;;;;4986051;28;20217;-67
2022/11/30 08:22:27;;;;;;;57.13;22.27;;;6.00;99.90;;;;;;4992735;28;20244;-67
2022/11/30 08:24:55;;;;;;;46.57;21.23;;;6.00;99.90;;;;;;4985792;28;20206;-68
2022/11/30 08:27:22;;;;;;;56.37;21.87;;;5.90;99.90;;;;;;4992077;28;20777;-67
2022/11/30 08:29:49;;;;;;;55.70;23.53;;;6.00;99.90;;;;;;4970035;28;20573;-66
2022/11/30 08:32:16;;;;;;;58.37;23.90;;;5.90;99.90;;;;;;4980179;28;20561;-67
2022/11/30 08:34:43;;;;;;;60.20;22.97;;;6.00;99.90;;;;;;4977931;28;20211;-67
2022/11/30 08:37:10;;;;;;;51.97;22.90;;;6.10;99.90;;;;;;4988957;28;20206;-67
2022/11/30 08:39:37;;;;;;;53.97;22.57;;;6.00;99.90;;;;;;4987910;28;20245;-67
2022/11/30 08:42:06;;;;;;;66.43;23.20;;;5.90;99.90;;;;;;4979440;28;20227;-67
2022/11/30 08:44:33;;;;;;;55.73;23.40;;;6.00;99.90;;;;;;4992203;28;20234;-68
2022/11/30 08:46:59;;;;;;;58.70;23.57;;;5.90;99.90;;;;;;4950085;28;23039;-67
2022/11/30 08:49:26;;;;;;;51.83;23.07;;;5.90;99.90;;;;;;4992371;28;20210;-67
2022/11/30 08:51:55;;;;;;;49.93;21.53;;;5.90;99.90;;;;;;4990284;28;20195;-67
2022/11/30 08:54:22;;;;;;;55.80;22.93;;;5.90;99.90;;;;;;4991890;28;20751;-67
2022/11/30 08:56:48;;;;;;;56.87;24.00;;;5.90;99.90;;;;;;4981179;28;20213;-67
2022/11/30 08:59:16;;;;;;;63.63;25.07;;;5.90;99.90;;;;;;4994651;28;20210;-67
2022/11/30 09:01:43;;;;;;;66.00;24.17;;;6.00;99.90;;;;;;4962094;28;20215;-67
2022/11/30 09:04:10;;;;;;;62.40;23.93;;;6.00;99.90;;;;;;4969905;28;20696;-67
2022/11/30 09:06:37;;;;;;;66.00;24.20;;;6.00;99.90;;;;;;4989524;28;20214;-67
2022/11/30 09:09:05;;;;;;;67.80;25.30;;;6.00;99.90;;;;;;4987111;28;20212;-67
2022/11/30 09:11:33;;;;;;;59.27;23.97;;;6.00;99.90;;;;;;4982575;28;20269;-67
2022/11/30 09:14:02;;;;;;;63.63;24.80;;;5.90;99.90;;;;;;4986585;28;20200;-68
2022/11/30 09:16:31;;;;;;;62.90;23.93;;;5.90;99.90;;;;;;4960192;28;21554;-67
2022/11/30 09:18:58;;;;;;;66.10;23.90;;;6.00;99.90;;;;;;4979493;28;20704;-67
2022/11/30 09:21:25;;;;;;;58.73;24.77;;;6.00;99.90;;;;;;4980472;28;20995;-67
2022/11/30 09:23:52;;;;;;;60.60;23.27;;;6.00;99.90;;;;;;4992010;28;20215;-67
2022/11/30 09:26:22;;;;;;;64.50;23.40;;;6.00;99.90;;;;;;4979991;28;20832;-67
2022/11/30 09:28:49;;;;;;;68.77;26.20;;;6.00;99.90;;;;;;4990146;28;20309;-67
2022/11/30 09:31:18;;;;;;;58.23;25.07;;;6.10;99.90;;;;;;4961465;28;20226;-68
2022/11/30 09:33:47;;;;;;;60.40;24.37;;;6.10;99.90;;;;;;4989697;28;20198;-67
2022/11/30 09:36:15;;;;;;;60.37;23.20;;;6.10;99.90;;;;;;4973418;28;20207;-67
2022/11/30 09:38:42;;;;;;;56.03;25.47;;;6.10;99.90;;;;;;4984704;28;20561;-67
2022/11/30 09:41:29;;;;;;;60.27;24.30;;;6.10;99.90;;;;;;4982261;28;20213;-67
2022/11/30 09:44:03;;;;;;;59.73;23.90;;;6.10;99.90;;;;;;4987637;28;20209;-67
2022/11/30 09:46:36;;;;;;;63.83;25.53;;;6.00;99.90;;;;;;4960127;28;21067;-67
2022/11/30 09:49:12;;;;;;;64.80;23.93;;;6.10;99.90;;;;;;4993209;28;20212;-68
2022/11/30 09:51:44;;;;;;;51.87;23.67;;;6.10;99.90;;;;;;4975801;28;20240;-67
2022/11/30 09:54:14;;;;;;;63.37;23.83;;;6.00;99.90;;;;;;4991282;28;20290;-67
2022/11/30 09:56:43;;;;;;;64.17;24.67;;;6.00;99.90;;;;;;4988476;28;20201;-70
2022/11/30 09:59:18;;;;;;;64.77;23.70;;;6.00;99.90;;;;;;4980283;28;20213;-67
2022/11/30 10:01:47;;;;;;;54.87;23.17;;;6.00;99.90;;;;;;4989984;28;20217;-67
2022/11/30 10:04:21;;;;;;;59.33;23.50;;;6.00;99.90;;;;;;4964234;28;20296;-67
2022/11/30 10:07:00;;;;;;;60.17;22.87;;;6.10;99.90;;;;;;4977573;28;20201;-67
2022/11/30 10:09:47;;;;;;;62.53;22.60;;;6.00;99.90;;;;;;4987458;28;20330;-67
2022/11/30 10:12:20;;;;;;;61.23;24.60;;;6.10;99.90;;;;;;4977174;28;20213;-67
2022/11/30 10:15:08;;;;;;;61.20;22.40;;;6.10;99.90;;;;;;4989576;28;20214;-67
2022/11/30 10:17:41;;;;;;;60.07;22.87;;;6.20;99.90;;;;;;4963850;28;20851;-67
2022/11/30 10:20:42;;;;;;;59.57;23.33;;;6.10;99.90;;;;;;4986258;28;20214;-68
2022/11/30 10:23:20;;;;;;;63.07;22.27;;;6.10;99.90;;;;;;4979745;28;20208;-67
2022/11/30 10:25:54;;;;;;;63.47;24.23;;;6.10;99.90;;;;;;4994254;28;20206;-67
2022/11/30 10:28:31;;;;;;;63.93;23.87;;;6.20;99.90;;;;;;4983216;28;20232;-68
2022/11/30 10:31:01;;;;;;;61.83;24.10;;;6.10;99.90;;;;;;4993881;28;20239;-67
2022/11/30 10:33:37;;;;;;;73.30;24.87;;;6.20;99.90;;;;;;4961856;28;20710;-68
2022/11/30 10:36:12;;;;;;;66.30;25.30;;;6.20;99.90;;;;;;4976530;28;20208;-67
2022/11/30 10:38:43;;;;;;;55.13;23.53;;;6.10;99.90;;;;;;4985146;28;20601;-67
2022/11/30 10:41:15;;;;;;;69.20;26.23;;;6.10;99.90;;;;;;4990009;28;20194;-67
2022/11/30 10:43:45;;;;;;;57.13;23.57;;;6.10;99.90;;;;;;4984008;28;20213;-67
2022/11/30 10:46:20;;;;;;;70.00;24.20;;;6.10;99.90;;;;;;4995550;28;20203;-67
2022/11/30 10:48:53;;;;;;;66.33;24.77;;;6.10;99.90;;;;;;4996581;28;20294;-67
2022/11/30 10:51:22;;;;;;;61.70;24.30;;;6.10;99.90;;;;;;4962018;28;20229;-67
2022/11/30 10:53:49;;;;;;;61.77;23.53;;;6.20;99.90;;;;;;4980451;28;20206;-67
2022/11/30 10:56:16;;;;;;;58.67;23.40;;;6.10;99.90;;;;;;4991091;28;20200;-67
2022/11/30 10:58:50;;;;;;;61.27;22.87;;;6.10;99.90;;;;;;4993789;28;20200;-67
2022/11/30 11:01:34;;;;;;;55.87;22.60;;;6.10;99.90;;;;;;4977151;28;20211;-67
2022/11/30 11:04:10;;;;;;;60.07;23.27;;;6.20;99.90;;;;;;4986373;28;20219;-67
2022/11/30 11:06:42;;;;;;;62.93;22.77;;;6.30;99.90;;;;;;4989919;28;20207;-67
2022/11/30 11:09:31;;;;;;;57.10;21.50;;;6.30;99.90;;;;;;4976939;28;20219;-67
2022/11/30 11:11:59;;;;;;;63.27;23.90;;;6.20;99.90;;;;;;4992050;28;20795;-67
2022/11/30 11:14:27;;;;;;;58.30;23.10;;;6.20;99.90;;;;;;4985244;28;23098;-67
2022/11/30 11:16:57;;;;;;;64.93;23.80;;;6.20;99.90;;;;;;4997546;28;20205;-67
2022/11/30 11:19:33;;;;;;;60.83;23.87;;;6.20;99.90;;;;;;4962533;28;20217;-67
2022/11/30 11:22:05;;;;;;;66.80;25.60;;;6.20;99.90;;;;;;4992794;28;20677;-67
2022/11/30 11:24:33;;;;;;;62.87;23.20;;;6.20;99.90;;;;;;4992109;28;20593;-67
2022/11/30 11:27:00;;;;;;;53.83;22.93;;;6.20;99.90;;;;;;4991914;28;20200;-67
2022/11/30 11:29:33;;;;;;;62.07;22.43;;;6.20;99.90;;;;;;4992766;28;20230;-67
2022/11/30 11:32:23;;;;;;;57.87;22.80;;;6.20;99.90;;;;;;4984276;28;20228;-67
2022/11/30 11:34:50;;;;;;;67.70;24.47;;;6.20;99.90;;;;;;4991982;28;20209;-68
2022/11/30 11:37:21;;;;;;;60.50;23.03;;;6.20;99.90;;;;;;4963307;28;20214;-67
2022/11/30 11:40:01;;;;;;;64.63;24.10;;;6.30;99.90;;;;;;4981122;28;20715;-67
2022/11/30 11:42:30;;;;;;;55.40;23.33;;;6.30;99.90;;;;;;4997065;28;20200;-68
2022/11/30 11:44:59;;;;;;;60.13;23.60;;;6.20;99.90;;;;;;4995521;28;20206;-66
2022/11/30 11:47:28;;;;;;;63.53;23.07;;;6.20;99.90;;;;;;4983636;28;20206;-67
2022/11/30 11:50:32;;;;;;;58.73;23.00;;;6.20;99.90;;;;;;4987843;28;20207;-68
2022/11/30 11:53:27;;;;;;;62.90;22.17;;;6.20;99.90;;;;;;4966469;28;20207;-67
2022/11/30 11:56:02;;;;;;;63.63;23.37;;;6.30;99.90;;;;;;4983010;28;20323;-68
2022/11/30 11:58:36;;;;;;;60.60;23.10;;;6.20;99.90;;;;;;4991418;28;20204;-68
2022/11/30 12:01:09;;;;;;;60.27;22.70;;;6.30;99.90;;;;;;4994235;28;20213;-68
2022/11/30 12:03:41;;;;;;;57.37;23.93;;;6.20;99.90;;;;;;4992464;28;20211;-67
2022/11/30 12:06:13;;;;;;;58.00;22.40;;;6.30;99.90;;;;;;4978448;28;20199;-67
2022/11/30 12:08:49;;;;;;;51.93;22.20;;;6.30;99.90;;;;;;4989480;28;20678;-67
2022/11/30 12:11:20;;;;;;;54.60;24.03;;;6.30;99.90;;;;;;4970577;28;20222;-67
2022/11/30 12:13:49;;;;;;;68.80;23.90;;;6.20;99.90;;;;;;4995057;28;20735;-67
2022/11/30 12:16:30;;;;;;;50.43;21.77;;;6.30;99.90;;;;;;4987759;28;20331;-68
2022/11/30 12:19:02;;;;;;;57.10;22.17;;;6.30;99.90;;;;;;4995298;28;20205;-68
2022/11/30 12:21:41;;;;;;;59.53;23.23;;;6.30;99.90;;;;;;4995886;28;20206;-67
2022/11/30 12:24:35;;;;;;;62.30;23.23;;;6.30;99.90;;;;;;4961379;28;20221;-67
2022/11/30 12:27:10;;;;;;;56.60;21.37;;;6.20;99.90;;;;;;4980201;28;20210;-67
2022/11/30 12:29:48;;;;;;;50.97;22.70;;;6.30;99.90;;;;;;4987083;28;20875;-67
2022/11/30 12:32:25;;;;;;;60.57;23.87;;;6.20;99.90;;;;;;4972766;28;20224;-67
2022/11/30 12:35:10;;;;;;;63.87;23.27;;;6.20;99.90;;;;;;4979886;28;20294;-67
2022/11/30 12:37:49;;;;;;;56.73;25.20;;;6.30;99.90;;;;;;4966614;28;21285;-68
2022/11/30 12:40:31;;;;;;;47.40;22.03;;;6.30;99.90;;;;;;4994576;28;20232;-67
2022/11/30 12:43:09;;;;;;;54.30;23.30;;;6.30;99.90;;;;;;4993670;28;20789;-67
2022/11/30 12:45:39;;;;;;;52.20;22.47;;;6.30;99.90;;;;;;4994767;28;20569;-68
2022/11/30 12:48:17;;;;;;;60.43;22.53;;;6.30;99.90;;;;;;4986660;28;20580;-67
2022/11/30 12:50:52;;;;;;;59.60;23.10;;;6.30;99.90;;;;;;4991500;28;20201;-67
2022/11/30 12:53:24;;;;;;;61.90;22.83;;;6.30;99.90;;;;;;4964301;28;20670;-67